createdAt,value
2022-08-21T00:00:17.334Z,16.39
2022-08-21T00:03:00.210Z,16.39
2022-08-21T00:05:28.270Z,16.34
2022-08-21T00:07:56.712Z,16.28
2022-08-21T00:10:24.498Z,16.17
2022-08-21T00:12:52.168Z,16.06
2022-08-21T00:15:24.583Z,16.15
2022-08-21T00:17:51.615Z,16.04
2022-08-21T00:20:19.506Z,16.04
2022-08-21T00:22:47.396Z,15.92
2022-08-21T00:25:15.682Z,15.93
2022-08-21T00:27:43.698Z,15.87
2022-08-21T00:30:18.295Z,15.90
2022-08-21T00:32:52.292Z,15.87
2022-08-21T00:35:24.155Z,15.69
2022-08-21T00:37:51.164Z,15.65
2022-08-21T00:40:22.179Z,15.51
2022-08-21T00:42:53.763Z,15.48
2022-08-21T00:45:23.615Z,15.44
2022-08-21T00:47:52.160Z,15.42
2022-08-21T00:50:21.929Z,15.31
2022-08-21T00:52:52.157Z,15.21
2022-08-21T00:55:21.765Z,15.22
2022-08-21T00:57:55.106Z,15.26
2022-08-21T01:00:24.428Z,15.24
2022-08-21T01:02:51.576Z,15.19
2022-08-21T01:05:18.741Z,15.21
2022-08-21T01:07:46.138Z,14.97
2022-08-21T01:10:20.619Z,14.92
2022-08-21T01:12:54.287Z,14.95
2022-08-21T01:15:24.136Z,14.91
2022-08-21T01:17:52.070Z,14.87
2022-08-21T01:20:19.067Z,14.85
2022-08-21T01:22:46.243Z,14.84
2022-08-21T01:25:17.769Z,14.87
2022-08-21T01:27:45.170Z,14.87
2022-08-21T01:30:16.160Z,14.85
2022-08-21T01:32:43.947Z,14.82
2022-08-21T01:35:12.450Z,14.82
2022-08-21T01:37:39.708Z,14.74
2022-08-21T01:40:08.373Z,14.69
2022-08-21T01:42:36.112Z,14.66
2022-08-21T01:45:05.008Z,14.76
2022-08-21T01:47:32.447Z,14.74
2022-08-21T01:49:59.689Z,14.70
2022-08-21T01:52:27.198Z,14.75
2022-08-21T01:54:55.025Z,14.62
2022-08-21T01:57:26.022Z,14.66
2022-08-21T01:59:54.696Z,14.62
2022-08-21T02:02:21.749Z,14.56
2022-08-21T02:04:48.790Z,14.53
2022-08-21T02:07:16.260Z,14.53
2022-08-21T02:09:43.862Z,14.55
2022-08-21T02:12:12.054Z,14.47
2022-08-21T02:14:39.317Z,14.47
2022-08-21T02:17:09.711Z,14.43
2022-08-21T02:19:40.343Z,14.41
2022-08-21T02:22:11.643Z,14.28
2022-08-21T02:24:53.886Z,14.33
2022-08-21T02:27:27.426Z,14.35
2022-08-21T02:29:58.386Z,14.33
2022-08-21T02:32:27.004Z,14.22
2022-08-21T02:34:54.611Z,14.24
2022-08-21T02:37:21.837Z,14.24
2022-08-21T02:39:49.510Z,14.24
2022-08-21T02:42:17.265Z,14.17
2022-08-21T02:44:44.300Z,14.26
2022-08-21T02:47:11.353Z,14.18
2022-08-21T02:49:38.382Z,14.16
2022-08-21T02:52:06.705Z,14.21
2022-08-21T02:54:33.941Z,14.18
2022-08-21T02:57:01.312Z,14.21
2022-08-21T02:59:28.357Z,14.16
2022-08-21T03:01:56.875Z,14.02
2022-08-21T03:04:24.218Z,14.05
2022-08-21T03:06:51.975Z,14.07
2022-08-21T03:09:18.981Z,14.03
2022-08-21T03:11:46.615Z,13.93
2022-08-21T03:14:13.677Z,13.87
2022-08-21T03:16:40.779Z,13.83
2022-08-21T03:19:08.256Z,13.83
2022-08-21T03:21:35.320Z,13.79
2022-08-21T03:24:04.340Z,13.68
2022-08-21T03:26:31.944Z,13.77
2022-08-21T03:28:59.524Z,13.51
2022-08-21T03:31:32.041Z,13.48
2022-08-21T03:33:59.421Z,13.56
2022-08-21T03:36:29.140Z,13.57
2022-08-21T03:38:56.263Z,13.56
2022-08-21T03:41:23.329Z,13.53
2022-08-21T03:43:50.477Z,13.51
2022-08-21T03:46:17.546Z,13.49
2022-08-21T03:48:45.404Z,13.51
2022-08-21T03:51:13.168Z,13.49
2022-08-21T03:53:40.335Z,13.53
2022-08-21T03:56:08.363Z,13.50
2022-08-21T03:58:35.840Z,13.42
2022-08-21T04:01:05.856Z,13.41
2022-08-21T04:03:35.473Z,13.28
2022-08-21T04:06:02.523Z,13.38
2022-08-21T04:08:29.593Z,13.33
2022-08-21T04:10:57.904Z,13.33
2022-08-21T04:13:25.183Z,13.32
2022-08-21T04:15:52.198Z,13.34
2022-08-21T04:18:19.367Z,13.40
2022-08-21T04:20:50.459Z,13.38
2022-08-21T04:23:23.750Z,13.46
2022-08-21T04:25:52.781Z,13.46
2022-08-21T04:28:20.576Z,13.51
2022-08-21T04:30:48.039Z,13.56
2022-08-21T04:33:15.162Z,13.51
2022-08-21T04:35:43.145Z,13.51
2022-08-21T04:38:10.642Z,13.38
2022-08-21T04:40:37.908Z,13.43
2022-08-21T04:43:07.395Z,13.42
2022-08-21T04:45:41.880Z,13.56
2022-08-21T04:48:14.076Z,13.54
2022-08-21T04:50:58.679Z,13.69
2022-08-21T04:53:41.323Z,13.87
2022-08-21T04:56:19.764Z,13.95
2022-08-21T04:58:47.523Z,13.88
2022-08-21T05:01:18.292Z,13.90
2022-08-21T05:03:48.441Z,13.87
2022-08-21T05:06:16.785Z,14.00
2022-08-21T05:08:46.620Z,14.09
2022-08-21T05:11:14.142Z,14.17
2022-08-21T05:13:44.453Z,14.12
2022-08-21T05:16:11.533Z,14.08
2022-08-21T05:18:38.875Z,14.14
2022-08-21T05:21:06.262Z,14.16
2022-08-21T05:23:33.723Z,14.14
2022-08-21T05:26:00.768Z,14.17
2022-08-21T05:28:28.211Z,14.21
2022-08-21T05:30:55.359Z,14.10
2022-08-21T05:33:22.423Z,14.00
2022-08-21T05:35:53.806Z,14.04
2022-08-21T05:38:21.327Z,14.19
2022-08-21T05:40:48.506Z,14.33
2022-08-21T05:43:15.927Z,14.50
2022-08-21T05:45:44.393Z,14.61
2022-08-21T05:48:17.026Z,14.68
2022-08-21T05:50:46.307Z,14.66
2022-08-21T05:53:14.996Z,14.64
2022-08-21T05:55:46.270Z,14.71
2022-08-21T05:58:14.582Z,14.79
2022-08-21T06:00:42.491Z,14.73
2022-08-21T06:03:18.521Z,14.81
2022-08-21T06:05:46.724Z,14.82
2022-08-21T06:08:15.476Z,14.72
2022-08-21T06:10:42.900Z,14.90
2022-08-21T06:13:11.345Z,14.99
2022-08-21T06:15:38.438Z,15.16
2022-08-21T06:18:06.100Z,15.21
2022-08-21T06:20:33.451Z,15.40
2022-08-21T06:23:00.889Z,15.49
2022-08-21T06:25:28.103Z,15.60
2022-08-21T06:28:02.060Z,15.77
2022-08-21T06:30:29.190Z,15.92
2022-08-21T06:32:56.311Z,16.18
2022-08-21T06:35:25.719Z,16.42
2022-08-21T06:37:52.993Z,16.48
2022-08-21T06:40:20.190Z,16.70
2022-08-21T06:42:48.760Z,16.88
2022-08-21T06:45:16.223Z,16.99
2022-08-21T06:47:43.254Z,17.03
2022-08-21T06:50:10.512Z,17.04
2022-08-21T06:52:38.746Z,17.08
2022-08-21T06:55:07.814Z,17.18
2022-08-21T06:57:34.881Z,17.31
2022-08-21T07:00:04.182Z,17.54
2022-08-21T07:02:31.393Z,17.79
2022-08-21T07:04:59.261Z,18.02
2022-08-21T07:07:26.343Z,18.10
2022-08-21T07:09:53.430Z,18.22
2022-08-21T07:12:20.850Z,18.38
2022-08-21T07:14:48.101Z,18.40
2022-08-21T07:17:15.148Z,18.41
2022-08-21T07:19:42.533Z,18.49
2022-08-21T07:22:09.723Z,18.43
2022-08-21T07:24:36.797Z,18.65
2022-08-21T07:27:08.187Z,18.73
2022-08-21T07:29:36.869Z,18.71
2022-08-21T07:32:04.434Z,18.64
2022-08-21T07:34:31.797Z,18.62
2022-08-21T07:36:59.752Z,18.66
2022-08-21T07:39:33.299Z,18.78
2022-08-21T07:42:03.911Z,18.77
2022-08-21T07:44:35.262Z,18.85
2022-08-21T07:47:02.843Z,18.95
2022-08-21T07:49:29.862Z,19.08
2022-08-21T07:51:57.647Z,19.19
2022-08-21T07:54:33.433Z,19.36
2022-08-21T07:57:00.932Z,19.45
2022-08-21T07:59:28.570Z,19.57
2022-08-21T08:01:56.287Z,19.74
2022-08-21T08:04:26.496Z,19.85
2022-08-21T08:06:54.064Z,20.00
2022-08-21T08:09:21.386Z,20.13
2022-08-21T08:11:48.786Z,20.32
2022-08-21T08:14:17.012Z,20.49
2022-08-21T08:16:44.177Z,20.56
2022-08-21T08:19:11.239Z,20.63
2022-08-21T08:21:39.490Z,20.65
2022-08-21T08:24:19.040Z,20.81
2022-08-21T08:26:53.557Z,20.96
2022-08-21T08:29:22.779Z,21.06
2022-08-21T08:31:49.826Z,21.15
2022-08-21T08:34:23.615Z,21.15
2022-08-21T08:36:52.658Z,21.29
2022-08-21T08:39:26.666Z,21.47
2022-08-21T08:42:33.803Z,21.57
2022-08-21T08:45:09.880Z,21.78
2022-08-21T08:47:43.900Z,21.79
2022-08-21T08:50:25.020Z,21.77
2022-08-21T08:53:06.128Z,21.84
2022-08-21T08:55:41.014Z,21.95
2022-08-21T08:58:12.884Z,22.10
2022-08-21T09:00:39.933Z,22.20
2022-08-21T09:03:07.386Z,22.23
2022-08-21T09:05:53.564Z,22.17
2022-08-21T09:09:03.275Z,22.24
2022-08-21T09:11:42.955Z,22.38
2022-08-21T09:14:34.699Z,22.57
2022-08-21T09:17:07.573Z,22.54
2022-08-21T09:19:56.574Z,22.59
2022-08-21T09:23:07.276Z,22.70
2022-08-21T09:26:02.123Z,22.75
2022-08-21T09:28:33.132Z,22.91
2022-08-21T09:31:03.696Z,23.13
2022-08-21T09:33:31.006Z,23.35
2022-08-21T09:35:59.290Z,23.76
2022-08-21T09:38:33.998Z,24.06
2022-08-21T09:41:07.432Z,24.32
2022-08-21T09:43:35.022Z,24.26
2022-08-21T09:46:13.705Z,24.28
2022-08-21T09:48:50.286Z,24.36
2022-08-21T09:51:23.416Z,24.40
2022-08-21T09:53:56.569Z,24.47
2022-08-21T09:56:48.907Z,24.86
2022-08-21T09:59:20.673Z,25.10
2022-08-21T10:01:51.404Z,25.16
2022-08-21T10:04:37.313Z,25.35
2022-08-21T10:07:13.380Z,25.66
2022-08-21T10:09:42.105Z,25.49
2022-08-21T10:12:25.000Z,25.49
2022-08-21T10:15:08.723Z,25.49
2022-08-21T10:17:44.608Z,25.77
2022-08-21T10:20:31.752Z,25.69
2022-08-21T10:23:27.106Z,25.39
2022-08-21T10:26:13.157Z,25.38
2022-08-21T10:29:03.083Z,25.32
2022-08-21T10:31:36.526Z,25.16
2022-08-21T10:34:20.986Z,25.41
2022-08-21T10:37:07.837Z,25.61
2022-08-21T10:39:49.644Z,25.94
2022-08-21T10:43:04.789Z,26.34
2022-08-21T10:45:32.150Z,26.53
2022-08-21T10:48:06.469Z,26.85
2022-08-21T10:50:39.887Z,26.94
2022-08-21T10:53:27.155Z,27.11
2022-08-21T10:55:54.246Z,27.10
2022-08-21T10:58:38.181Z,27.36
2022-08-21T11:01:16.383Z,27.38
2022-08-21T11:03:47.407Z,27.63
2022-08-21T11:06:22.563Z,27.92
2022-08-21T11:09:00.586Z,28.01
2022-08-21T11:11:35.952Z,27.53
2022-08-21T11:14:14.071Z,27.00
2022-08-21T11:16:45.397Z,26.93
2022-08-21T11:19:20.281Z,26.64
2022-08-21T11:21:58.029Z,27.11
2022-08-21T11:24:43.181Z,27.61
2022-08-21T11:27:29.751Z,28.24
2022-08-21T11:30:01.446Z,28.67
2022-08-21T11:32:40.383Z,28.27
2022-08-21T11:35:45.355Z,28.32
2022-08-21T11:38:18.673Z,28.60
2022-08-21T11:41:13.852Z,28.85
2022-08-21T11:43:45.704Z,28.95
2022-08-21T11:46:38.529Z,28.84
2022-08-21T11:49:38.145Z,29.25
2022-08-21T11:52:35.932Z,30.19
2022-08-21T11:55:23.927Z,29.87
2022-08-21T11:58:13.091Z,28.95
2022-08-21T12:00:45.755Z,28.32
2022-08-21T12:03:16.828Z,28.09
2022-08-21T12:05:54.014Z,28.10
2022-08-21T12:08:34.171Z,28.20
2022-08-21T12:11:23.586Z,28.18
2022-08-21T12:14:06.648Z,27.69
2022-08-21T12:16:40.235Z,27.28
2022-08-21T12:19:27.498Z,27.05
2022-08-21T12:22:01.147Z,27.42
2022-08-21T12:24:28.283Z,28.40
2022-08-21T12:27:15.712Z,28.64
2022-08-21T12:29:51.629Z,28.29
2022-08-21T12:32:18.671Z,27.95
2022-08-21T12:34:56.337Z,27.98
2022-08-21T12:37:39.468Z,28.82
2022-08-21T12:40:23.578Z,29.53
2022-08-21T12:42:59.001Z,29.91
2022-08-21T12:45:42.430Z,30.33
2022-08-21T12:48:27.251Z,30.86
2022-08-21T12:51:01.905Z,31.05
2022-08-21T12:53:41.112Z,31.66
2022-08-21T12:56:19.313Z,31.53
2022-08-21T12:58:52.197Z,31.45
2022-08-21T13:01:25.820Z,30.99
2022-08-21T13:04:04.936Z,31.38
2022-08-21T13:06:38.942Z,31.37
2022-08-21T13:09:11.927Z,31.86
2022-08-21T13:11:42.212Z,32.80
2022-08-21T13:14:45.127Z,32.76
2022-08-21T13:17:20.321Z,32.58
2022-08-21T13:20:03.252Z,32.35
2022-08-21T13:22:33.858Z,33.03
2022-08-21T13:25:06.543Z,32.86
2022-08-21T13:27:35.512Z,32.94
2022-08-21T13:30:21.683Z,33.15
2022-08-21T13:32:53.147Z,33.40
2022-08-21T13:35:37.913Z,32.84
2022-08-21T13:38:06.282Z,32.55
2022-08-21T13:40:43.425Z,31.67
2022-08-21T13:43:19.881Z,32.05
2022-08-21T13:45:51.072Z,32.66
2022-08-21T13:48:19.012Z,33.40
2022-08-21T13:50:46.486Z,33.59
2022-08-21T13:53:37.019Z,32.70
2022-08-21T13:56:05.858Z,32.95
2022-08-21T13:58:46.257Z,32.85
2022-08-21T14:01:33.979Z,33.67
2022-08-21T14:04:13.247Z,34.29
2022-08-21T14:06:40.398Z,34.01
2022-08-21T14:09:12.286Z,33.94
2022-08-21T14:11:40.932Z,33.92
2022-08-21T14:14:23.058Z,34.24
2022-08-21T14:17:24.082Z,34.33
2022-08-21T14:19:53.484Z,34.48
2022-08-21T14:22:35.420Z,33.88
2022-08-21T14:25:10.201Z,33.60
2022-08-21T14:27:42.986Z,33.39
2022-08-21T14:30:20.511Z,33.34
2022-08-21T14:32:49.064Z,33.61
2022-08-21T14:35:18.778Z,34.30
2022-08-21T14:37:51.874Z,34.76
2022-08-21T14:40:21.731Z,34.72
2022-08-21T14:42:50.588Z,34.72
2022-08-21T14:45:30.605Z,35.20
2022-08-21T14:47:59.831Z,34.88
2022-08-21T14:50:28.080Z,34.63
2022-08-21T14:52:55.899Z,34.36
2022-08-21T14:55:23.345Z,34.56
2022-08-21T14:57:52.846Z,34.26
2022-08-21T15:00:35.980Z,33.99
2022-08-21T15:03:03.724Z,34.30
2022-08-21T15:05:33.838Z,34.86
2022-08-21T15:08:02.157Z,34.42
2022-08-21T15:10:33.635Z,34.35
2022-08-21T15:13:01.540Z,32.70
2022-08-21T15:15:33.495Z,31.91
2022-08-21T15:18:00.634Z,31.46
2022-08-21T15:20:27.807Z,31.07
2022-08-21T15:22:54.924Z,30.48
2022-08-21T15:25:22.517Z,30.15
2022-08-21T15:27:49.765Z,29.75
2022-08-21T15:30:17.226Z,29.28
2022-08-21T15:32:44.438Z,29.45
2022-08-21T15:35:11.482Z,28.86
2022-08-21T15:37:38.510Z,28.56
2022-08-21T15:40:08.188Z,28.48
2022-08-21T15:42:35.875Z,28.60
2022-08-21T15:45:04.136Z,28.52
2022-08-21T15:47:35.158Z,28.52
2022-08-21T15:50:02.748Z,28.57
2022-08-21T15:52:29.677Z,28.92
2022-08-21T15:54:57.007Z,29.22
2022-08-21T15:57:25.776Z,29.48
2022-08-21T15:59:56.356Z,29.79
2022-08-21T16:02:27.217Z,30.19
2022-08-21T16:04:54.420Z,30.45
2022-08-21T16:07:21.353Z,30.52
2022-08-21T16:09:48.871Z,30.96
2022-08-21T16:12:28.598Z,31.46
2022-08-21T16:14:55.805Z,31.23
2022-08-21T16:17:31.086Z,30.48
2022-08-21T16:19:59.258Z,30.05
2022-08-21T16:22:26.475Z,29.45
2022-08-21T16:25:07.955Z,28.80
2022-08-21T16:27:36.519Z,28.64
2022-08-21T16:30:06.426Z,28.10
2022-08-21T16:32:35.312Z,27.75
2022-08-21T16:35:04.437Z,27.58
2022-08-21T16:37:32.590Z,27.36
2022-08-21T16:40:00.077Z,27.32
2022-08-21T16:42:27.461Z,27.23
2022-08-21T16:44:56.475Z,26.93
2022-08-21T16:47:26.526Z,27.00
2022-08-21T16:49:55.523Z,26.82
2022-08-21T16:52:22.965Z,26.52
2022-08-21T16:54:50.993Z,26.61
2022-08-21T16:57:18.820Z,26.50
2022-08-21T16:59:46.431Z,26.49
2022-08-21T17:02:36.297Z,26.42
2022-08-21T17:05:04.709Z,26.31
2022-08-21T17:07:36.838Z,26.28
2022-08-21T17:10:06.492Z,26.30
2022-08-21T17:12:34.958Z,26.16
2022-08-21T17:15:08.333Z,26.09
2022-08-21T17:17:36.053Z,26.11
2022-08-21T17:20:05.886Z,25.91
2022-08-21T17:22:34.197Z,25.97
2022-08-21T17:25:02.848Z,25.93
2022-08-21T17:27:30.755Z,25.91
2022-08-21T17:29:58.173Z,25.86
2022-08-21T17:32:29.667Z,25.87
2022-08-21T17:34:57.446Z,25.76
2022-08-21T17:37:29.400Z,25.74
2022-08-21T17:40:00.448Z,25.70
2022-08-21T17:42:31.783Z,25.36
2022-08-21T17:45:04.316Z,25.35
2022-08-21T17:47:31.768Z,25.30
2022-08-21T17:49:59.060Z,25.25
2022-08-21T17:52:31.253Z,25.17
2022-08-21T17:54:59.133Z,25.09
2022-08-21T17:57:29.139Z,24.76
2022-08-21T17:59:58.511Z,24.70
2022-08-21T18:02:28.873Z,24.57
2022-08-21T18:04:56.945Z,24.47
2022-08-21T18:07:32.054Z,24.38
2022-08-21T18:10:02.044Z,24.22
2022-08-21T18:12:30.516Z,24.21
2022-08-21T18:14:57.959Z,24.18
2022-08-21T18:17:28.428Z,24.11
2022-08-21T18:19:55.670Z,23.89
2022-08-21T18:22:23.062Z,23.80
2022-08-21T18:24:50.467Z,23.68
2022-08-21T18:27:19.092Z,23.64
2022-08-21T18:29:47.597Z,23.57
2022-08-21T18:32:31.605Z,23.45
2022-08-21T18:35:01.764Z,23.30
2022-08-21T18:37:29.900Z,23.24
2022-08-21T18:39:57.361Z,23.13
2022-08-21T18:42:29.157Z,23.11
2022-08-21T18:45:01.109Z,23.07
2022-08-21T18:47:37.343Z,23.00
2022-08-21T18:52:54.510Z,22.83
2022-08-21T18:55:24.788Z,22.79
2022-08-21T18:57:54.375Z,22.60
2022-08-21T19:00:25.325Z,22.40
2022-08-21T19:02:53.382Z,22.35
2022-08-21T19:05:23.026Z,22.43
2022-08-21T19:07:51.564Z,22.44
2022-08-21T19:10:27.759Z,22.51
2022-08-21T19:12:58.699Z,22.58
2022-08-21T19:15:26.507Z,22.63
2022-08-21T19:17:54.614Z,22.53
2022-08-21T19:20:30.958Z,22.61
2022-08-21T19:22:58.709Z,22.53
2022-08-21T19:25:34.079Z,22.52
2022-08-21T19:28:11.259Z,22.47
2022-08-21T19:31:01.821Z,22.33
2022-08-21T19:33:33.547Z,22.21
2022-08-21T19:36:01.103Z,22.18
2022-08-21T19:38:28.315Z,22.19
2022-08-21T19:40:57.041Z,22.17
2022-08-21T19:43:25.084Z,22.05
2022-08-21T19:45:57.211Z,21.89
2022-08-21T19:48:26.160Z,21.69
2022-08-21T19:50:54.357Z,21.43
2022-08-21T19:53:22.395Z,21.24
2022-08-21T19:55:49.934Z,21.11
2022-08-21T19:58:32.343Z,20.94
2022-08-21T20:00:59.585Z,20.92
2022-08-21T20:03:26.921Z,20.97
2022-08-21T20:05:54.232Z,20.88
2022-08-21T20:08:21.663Z,20.86
2022-08-21T20:10:50.205Z,20.86
2022-08-21T20:13:22.220Z,20.78
2022-08-21T20:15:50.672Z,20.59
2022-08-21T20:18:19.147Z,20.44
2022-08-21T20:20:54.379Z,20.32
2022-08-21T20:26:09.709Z,20.17
2022-08-21T20:28:37.020Z,20.22
2022-08-21T20:31:09.542Z,20.26
2022-08-21T20:33:37.688Z,20.13
2022-08-21T20:36:05.237Z,20.15
2022-08-21T20:38:32.324Z,19.97
2022-08-21T20:40:59.744Z,19.83
2022-08-21T20:43:27.997Z,19.84
2022-08-21T20:45:55.510Z,19.82
2022-08-21T20:48:32.179Z,19.81
2022-08-21T20:51:32.035Z,19.85
2022-08-21T20:54:27.186Z,19.78
2022-08-21T20:57:00.224Z,19.53
2022-08-21T20:59:33.672Z,19.40
2022-08-21T21:02:16.286Z,19.40
2022-08-21T21:04:59.458Z,19.37
2022-08-21T21:07:37.327Z,19.45
2022-08-21T21:10:12.383Z,19.45
2022-08-21T21:12:47.837Z,19.40
2022-08-21T21:15:28.237Z,19.25
2022-08-21T21:18:05.293Z,19.18
2022-08-21T21:20:50.904Z,19.04
2022-08-21T21:24:00.362Z,19.12
2022-08-21T21:26:33.218Z,19.03
2022-08-21T21:29:12.579Z,18.95
2022-08-21T21:31:41.641Z,18.98
2022-08-21T21:34:16.968Z,19.02
2022-08-21T21:36:51.612Z,19.04
2022-08-21T21:39:41.077Z,19.07
2022-08-21T21:42:30.209Z,19.05
2022-08-21T21:45:19.226Z,19.12
2022-08-21T21:47:53.165Z,19.08
2022-08-21T21:50:29.095Z,18.89
2022-08-21T21:53:02.707Z,18.98
2022-08-21T21:55:47.820Z,19.00
2022-08-21T21:58:46.040Z,18.89
2022-08-21T22:01:44.194Z,18.95
2022-08-21T22:04:33.043Z,19.01
2022-08-21T22:07:32.032Z,18.85
2022-08-21T22:10:20.044Z,18.90
2022-08-21T22:13:26.353Z,18.88
2022-08-21T22:15:54.577Z,18.96
2022-08-21T22:18:28.574Z,18.95
2022-08-21T22:21:02.655Z,18.95
2022-08-21T22:23:38.842Z,18.89
2022-08-21T22:26:11.133Z,18.57
2022-08-21T22:28:41.815Z,18.59
2022-08-21T22:31:31.454Z,18.47
2022-08-21T22:34:21.467Z,18.52
2022-08-21T22:36:57.376Z,18.52
2022-08-21T22:39:38.647Z,18.52
2022-08-21T22:42:14.230Z,18.49
2022-08-21T22:45:12.180Z,18.47
2022-08-21T22:47:48.396Z,18.51
2022-08-21T22:50:24.239Z,18.55
2022-08-21T22:52:58.436Z,18.37
2022-08-21T22:55:29.304Z,18.17
2022-08-21T22:58:12.426Z,18.19
2022-08-21T23:00:51.374Z,18.18
2022-08-21T23:03:33.953Z,18.17
2022-08-21T23:06:12.803Z,18.06
2022-08-21T23:08:52.938Z,18.07
2022-08-21T23:11:26.850Z,18.08
2022-08-21T23:13:55.716Z,18.02
2022-08-21T23:16:47.237Z,18.12
2022-08-21T23:19:49.207Z,17.97
2022-08-21T23:22:36.586Z,18.01
2022-08-21T23:25:38.906Z,18.05
2022-08-21T23:28:30.420Z,18.09
2022-08-21T23:31:25.193Z,18.10
2022-08-21T23:34:19.658Z,18.12
2022-08-21T23:37:24.841Z,18.09
2022-08-21T23:40:33.565Z,18.06
2022-08-21T23:43:08.069Z,17.79
2022-08-21T23:45:54.538Z,17.88
2022-08-21T23:48:31.911Z,17.86
2022-08-21T23:51:10.661Z,17.90
2022-08-21T23:54:19.214Z,17.86
2022-08-21T23:57:26.615Z,17.83
